Time;durP1;ratioP1;P1;durP2;ratioP2;P2;SDS_P1;SDS_P2;PMS_P1;PMS_P2;Temp;Humidity;BMP_temperature;BMP_pressure;BME280_temperature;BME280_humidity;BME280_pressure;Samples;Min_cycle;Max_cycle;Signal;HPM_P1;HPM_P2
2019/08/30 00:12:32;;;;;;;15.7;14.2;;;;;;;;;;;;;
2019/08/30 00:14:41;;;;;;;15.7;14.2;;;;;;;;;;;;;
2019/08/30 00:17:06;;;;;;;14.9;13.5;;;;;;;;;;;;;
2019/08/30 00:19:31;;;;;;;15.5;13.9;;;;;;;;;;;;;
2019/08/30 00:21:56;;;;;;;14.4;13;;;;;;;;;;;;;
2019/08/30 00:24:21;;;;;;;15.9;14.3;;;;;;;;;;;;;
2019/08/30 00:26:46;;;;;;;16.5;14.7;;;;;;;;;;;;;
2019/08/30 00:29:11;;;;;;;15.4;13.9;;;;;;;;;;;;;
2019/08/30 00:31:37;;;;;;;15.2;13.7;;;;;;;;;;;;;
2019/08/30 00:34:02;;;;;;;15.4;13.8;;;;;;;;;;;;;
2019/08/30 00:36:27;;;;;;;14.4;13;;;;;;;;;;;;;
2019/08/30 00:38:52;;;;;;;15.1;13.6;;;;;;;;;;;;;
2019/08/30 00:41:17;;;;;;;15.9;14.4;;;;;;;;;;;;;
2019/08/30 00:43:42;;;;;;;15.6;13.9;;;;;;;;;;;;;
2019/08/30 00:46:07;;;;;;;15.1;13.5;;;;;;;;;;;;;
2019/08/30 00:48:32;;;;;;;14.9;13.5;;;;;;;;;;;;;
2019/08/30 00:50:57;;;;;;;15.1;13.6;;;;;;;;;;;;;
2019/08/30 00:53:23;;;;;;;14.6;13.2;;;;;;;;;;;;;
2019/08/30 00:55:48;;;;;;;15.3;13.8;;;;;;;;;;;;;
2019/08/30 00:58:13;;;;;;;14.8;13.3;;;;;;;;;;;;;
2019/08/30 01:00:38;;;;;;;15.8;14.2;;;;;;;;;;;;;
2019/08/30 01:03:03;;;;;;;15.2;13.6;;;;;;;;;;;;;
2019/08/30 01:05:28;;;;;;;15.3;13.8;;;;;;;;;;;;;
2019/08/30 01:07:53;;;;;;;14;12.6;;;;;;;;;;;;;
2019/08/30 01:10:18;;;;;;;14.5;13;;;;;;;;;;;;;
2019/08/30 01:12:43;;;;;;;14.4;13.1;;;;;;;;;;;;;
2019/08/30 01:15:08;;;;;;;14.6;13.2;;;;;;;;;;;;;
2019/08/30 01:17:34;;;;;;;15.2;13.3;;;;;;;;;;;;;
2019/08/30 01:19:59;;;;;;;14.6;13.2;;;;;;;;;;;;;
2019/08/30 01:22:24;;;;;;;13.7;12.4;;;;;;;;;;;;;
2019/08/30 01:24:49;;;;;;;13.7;12.3;;;;;;;;;;;;;
2019/08/30 01:27:14;;;;;;;15.6;12.9;;;;;;;;;;;;;
2019/08/30 01:29:39;;;;;;;13;11.7;;;;;;;;;;;;;
2019/08/30 01:32:04;;;;;;;13.2;11.9;;;;;;;;;;;;;
2019/08/30 01:34:29;;;;;;;13.2;11.9;;;;;;;;;;;;;
2019/08/30 01:36:54;;;;;;;14.1;12.7;;;;;;;;;;;;;
2019/08/30 01:39:20;;;;;;;15.6;12.8;;;;;;;;;;;;;
2019/08/30 01:41:45;;;;;;;13.1;11.8;;;;;;;;;;;;;
2019/08/30 01:44:10;;;;;;;12.8;11.5;;;;;;;;;;;;;
2019/08/30 01:46:35;;;;;;;13.1;11.8;;;;;;;;;;;;;
2019/08/30 01:49:00;;;;;;;13.6;12.3;;;;;;;;;;;;;
2019/08/30 01:51:25;;;;;;;13;11.8;;;;;;;;;;;;;
2019/08/30 01:53:50;;;;;;;13.5;11.9;;;;;;;;;;;;;
2019/08/30 01:56:15;;;;;;;13.1;11.7;;;;;;;;;;;;;
2019/08/30 01:58:41;;;;;;;13;11.2;;;;;;;;;;;;;
2019/08/30 02:01:06;;;;;;;12.7;11.5;;;;;;;;;;;;;
2019/08/30 02:03:31;;;;;;;12.6;11;;;;;;;;;;;;;
2019/08/30 02:05:56;;;;;;;12.9;10.8;;;;;;;;;;;;;
2019/08/30 02:08:21;;;;;;;12.4;11.1;;;;;;;;;;;;;
2019/08/30 02:10:46;;;;;;;12.5;11.3;;;;;;;;;;;;;
2019/08/30 02:13:11;;;;;;;13.8;11.7;;;;;;;;;;;;;
2019/08/30 02:15:36;;;;;;;12.4;11.2;;;;;;;;;;;;;
2019/08/30 02:18:01;;;;;;;12.5;11.3;;;;;;;;;;;;;
2019/08/30 02:20:26;;;;;;;11.8;10.7;;;;;;;;;;;;;
2019/08/30 02:22:52;;;;;;;12.2;10.9;;;;;;;;;;;;;
2019/08/30 02:25:17;;;;;;;11.9;10.6;;;;;;;;;;;;;
2019/08/30 02:27:42;;;;;;;12.3;11;;;;;;;;;;;;;
2019/08/30 02:30:07;;;;;;;12.6;10.5;;;;;;;;;;;;;
2019/08/30 02:32:32;;;;;;;13.7;10.7;;;;;;;;;;;;;
2019/08/30 02:34:57;;;;;;;11.6;10.2;;;;;;;;;;;;;
2019/08/30 02:37:22;;;;;;;11.6;9.7;;;;;;;;;;;;;
2019/08/30 02:39:47;;;;;;;11;9.9;;;;;;;;;;;;;
2019/08/30 02:42:13;;;;;;;11;9.9;;;;;;;;;;;;;
2019/08/30 02:44:38;;;;;;;10.8;9.7;;;;;;;;;;;;;
2019/08/30 02:47:03;;;;;;;11.5;10.3;;;;;;;;;;;;;
2019/08/30 02:49:28;;;;;;;12.2;10.9;;;;;;;;;;;;;
2019/08/30 02:51:53;;;;;;;11.4;10.3;;;;;;;;;;;;;
2019/08/30 02:54:18;;;;;;;12.3;10.4;;;;;;;;;;;;;
2019/08/30 02:56:43;;;;;;;10.7;9.5;;;;;;;;;;;;;
2019/08/30 02:59:08;;;;;;;10.9;9.6;;;;;;;;;;;;;
2019/08/30 03:01:33;;;;;;;11.4;10.2;;;;;;;;;;;;;
2019/08/30 03:03:58;;;;;;;11.3;9.7;;;;;;;;;;;;;
2019/08/30 03:06:24;;;;;;;10.6;9.5;;;;;;;;;;;;;
2019/08/30 03:08:49;;;;;;;11.1;9.8;;;;;;;;;;;;;
2019/08/30 03:11:14;;;;;;;12.1;10.4;;;;;;;;;;;;;
2019/08/30 03:13:39;;;;;;;11.2;10.1;;;;;;;;;;;;;
2019/08/30 03:16:04;;;;;;;10.8;9.8;;;;;;;;;;;;;
2019/08/30 03:18:29;;;;;;;11.3;10.1;;;;;;;;;;;;;
2019/08/30 03:20:55;;;;;;;11.7;10.1;;;;;;;;;;;;;
2019/08/30 03:23:20;;;;;;;11.1;10;;;;;;;;;;;;;
2019/08/30 03:25:45;;;;;;;11.3;10.1;;;;;;;;;;;;;
2019/08/30 03:28:10;;;;;;;11.3;10.1;;;;;;;;;;;;;
2019/08/30 03:30:35;;;;;;;11;9.9;;;;;;;;;;;;;
2019/08/30 03:33:00;;;;;;;12.1;10.4;;;;;;;;;;;;;
2019/08/30 03:35:25;;;;;;;11.6;10.4;;;;;;;;;;;;;
2019/08/30 03:37:50;;;;;;;11.3;10.2;;;;;;;;;;;;;
2019/08/30 03:40:15;;;;;;;10.8;9.7;;;;;;;;;;;;;
2019/08/30 03:42:40;;;;;;;11.6;10.4;;;;;;;;;;;;;
2019/08/30 03:45:06;;;;;;;11.1;10;;;;;;;;;;;;;
2019/08/30 03:47:31;;;;;;;11.4;9.8;;;;;;;;;;;;;
2019/08/30 03:49:56;;;;;;;11.7;10.1;;;;;;;;;;;;;
2019/08/30 03:52:21;;;;;;;11;9.9;;;;;;;;;;;;;
2019/08/30 03:54:46;;;;;;;11.4;10.3;;;;;;;;;;;;;
2019/08/30 03:57:11;;;;;;;13.6;10.5;;;;;;;;;;;;;
2019/08/30 03:59:36;;;;;;;11.8;10.1;;;;;;;;;;;;;
2019/08/30 04:02:27;;;;;;;11.5;10.3;;;;;;;18.25;92.54785;966.248;;;;
2019/08/30 04:04:52;;;;;;;10.7;9.6;;;;;;;18.38;91.80273;966.2405;;;;
2019/08/30 04:07:17;;;;;;;11.3;9.8;;;;;;;18.26;92.67871;966.2636;;;;
2019/08/30 04:09:42;;;;;;;10.5;9.2;;;;;;;18.31;92.07129;966.3156;;;;
2019/08/30 04:12:07;;;;;;;12.3;10.1;;;;;;;18.15;92.57422;966.3328;;;;
2019/08/30 04:14:32;;;;;;;10.8;9.7;;;;;;;18.15;92.23438;966.3535;;;;
2019/08/30 04:16:57;;;;;;;11.5;9.5;;;;;;;18.12;93.17773;966.3683;;;;
2019/08/30 04:19:22;;;;;;;12.7;9.8;;;;;;;18.04;92.99609;966.4097;;;;
2019/08/30 04:21:48;;;;;;;10.3;9.3;;;;;;;18.11;92.43555;966.4434;;;;
2019/08/30 04:24:13;;;;;;;11.7;10.3;;;;;;;18.07;92.07715;966.4592;;;;
2019/08/30 04:26:38;;;;;;;11.9;9.5;;;;;;;18.04;92.3291;966.4178;;;;
2019/08/30 04:29:03;;;;;;;13.3;9.2;;;;;;;17.99;91.98047;966.4779;;;;
2019/08/30 04:31:28;;;;;;;10.3;9.3;;;;;;;18;92.61426;966.4877;;;;
2019/08/30 04:33:53;;;;;;;11.1;9.1;;;;;;;18.01;92.33496;966.5103;;;;
2019/08/30 04:36:19;;;;;;;10.6;8.9;;;;;;;18.08;92.50195;966.5349;;;;
2019/08/30 04:38:44;;;;;;;9.1;8.2;;;;;;;18.19;92.17383;966.5508;;;;
2019/08/30 04:41:09;;;;;;;11.9;8.8;;;;;;;18.16;92.17773;966.61;;;;
2019/08/30 04:43:34;;;;;;;9.6;8.6;;;;;;;18.1;92.41211;966.5714;;;;
2019/08/30 04:45:59;;;;;;;9.4;8.4;;;;;;;18.12;92.7207;966.5645;;;;
2019/08/30 04:48:25;;;;;;;9.9;8.2;;;;;;;18.13;91.81055;966.5829;;;;
2019/08/30 04:50:50;;;;;;;10.3;8.4;;;;;;;18.16;91.80469;966.5862;;;;
2019/08/30 04:53:16;;;;;;;9.5;8.6;;;;;;;18.15;92.04688;966.6075;;;;
2019/08/30 04:55:41;;;;;;;9.5;8.6;;;;;;;18.11;91.81738;966.5531;;;;
2019/08/30 04:58:06;;;;;;;9.3;8.4;;;;;;;18.18;92.06641;966.6554;;;;
2019/08/30 05:00:31;;;;;;;9.4;8.1;;;;;;;18.16;91.79102;966.6586;;;;
2019/08/30 05:02:57;;;;;;;8.7;7.8;;;;;;;18.2;91.68359;966.6721;;;;
2019/08/30 05:05:22;;;;;;;9.5;7.8;;;;;;;18.21;91.43945;966.704;;;;
2019/08/30 05:07:48;;;;;;;9.7;7.6;;;;;;;18.15;91.52051;966.7081;;;;
2019/08/30 05:10:13;;;;;;;10.2;7.6;;;;;;;18.04;91.80176;966.742;;;;
2019/08/30 05:12:39;;;;;;;8.2;7.1;;;;;;;18.17;90.52832;966.752;;;;
2019/08/30 05:15:04;;;;;;;9;7.1;;;;;;;18.2;90.82617;966.7636;;;;
2019/08/30 05:17:29;;;;;;;10.7;7.3;;;;;;;18.22;90.60938;966.7972;;;;
2019/08/30 05:19:54;;;;;;;10.2;7.9;;;;;;;18.09;92.05957;966.8418;;;;
2019/08/30 05:22:19;;;;;;;8.3;7.3;;;;;;;18.09;90.16211;966.7906;;;;
2019/08/30 05:24:44;;;;;;;8.6;7.6;;;;;;;18.17;90.05957;966.8354;;;;
2019/08/30 05:27:10;;;;;;;8;6.5;;;;;;;18.25;89.57227;966.8413;;;;
2019/08/30 05:29:35;;;;;;;9.7;7.4;;;;;;;18.14;90.55762;966.8427;;;;
2019/08/30 05:32:00;;;;;;;8.8;7.7;;;;;;;18.06;89.75684;966.8657;;;;
2019/08/30 05:34:25;;;;;;;9.2;7.2;;;;;;;18.12;89.27734;966.7972;;;;
2019/08/30 05:36:50;;;;;;;8.6;7.7;;;;;;;18.19;88.70703;966.8214;;;;
2019/08/30 05:39:15;;;;;;;10.3;7.3;;;;;;;;;;;;;
2019/08/30 05:41:40;;;;;;;9.7;7.6;;;;;;;;;;;;;
2019/08/30 05:44:06;;;;;;;9.5;7.5;;;;;;;;;;;;;
2019/08/30 05:46:31;;;;;;;8.5;7.3;;;;;;;;;;;;;
2019/08/30 05:48:56;;;;;;;8.9;7.5;;;;;;;;;;;;;
2019/08/30 05:51:21;;;;;;;9.1;7.1;;;;;;;;;;;;;
2019/08/30 05:53:46;;;;;;;8.9;7.6;;;;;;;;;;;;;
2019/08/30 05:56:11;;;;;;;10.8;7.5;;;;;;;;;;;;;
2019/08/30 05:58:36;;;;;;;11.2;7.6;;;;;;;;;;;;;
2019/08/30 06:01:02;;;;;;;8.2;7;;;;;;;;;;;;;
2019/08/30 06:03:27;;;;;;;9.7;7.2;;;;;;;;;;;;;
2019/08/30 06:05:52;;;;;;;8.3;7.3;;;;;;;;;;;;;
2019/08/30 06:08:17;;;;;;;10.3;7.1;;;;;;;;;;;;;
2019/08/30 06:10:43;;;;;;;11.3;8.1;;;;;;;;;;;;;
2019/08/30 06:13:08;;;;;;;9.3;7.4;;;;;;;;;;;;;
2019/08/30 06:15:33;;;;;;;10.2;7.7;;;;;;;;;;;;;
2019/08/30 06:17:58;;;;;;;8.8;7.7;;;;;;;;;;;;;
2019/08/30 06:20:23;;;;;;;8.6;7.6;;;;;;;;;;;;;
2019/08/30 06:22:48;;;;;;;11.1;7.3;;;;;;;;;;;;;
2019/08/30 06:25:13;;;;;;;9.7;7.7;;;;;;;;;;;;;
2019/08/30 06:27:38;;;;;;;9.2;7.5;;;;;;;;;;;;;
2019/08/30 06:30:03;;;;;;;10.7;7.9;;;;;;;;;;;;;
2019/08/30 06:32:28;;;;;;;10.3;7.9;;;;;;;;;;;;;
2019/08/30 06:34:53;;;;;;;9.1;7.9;;;;;;;;;;;;;
2019/08/30 06:37:18;;;;;;;10.8;8.1;;;;;;;;;;;;;
2019/08/30 06:39:43;;;;;;;9.8;7.7;;;;;;;;;;;;;
2019/08/30 06:42:08;;;;;;;11.4;7.6;;;;;;;;;;;;;
2019/08/30 06:44:34;;;;;;;8.9;7.4;;;;;;;;;;;;;
2019/08/30 06:46:59;;;;;;;15;8.2;;;;;;;;;;;;;
2019/08/30 06:49:24;;;;;;;10.1;8.1;;;;;;;;;;;;;
2019/08/30 06:51:49;;;;;;;9.2;7.5;;;;;;;;;;;;;
2019/08/30 06:54:14;;;;;;;11.9;8;;;;;;;;;;;;;
2019/08/30 06:56:39;;;;;;;10.6;7.4;;;;;;;;;;;;;
2019/08/30 06:59:04;;;;;;;11.6;8.2;;;;;;;;;;;;;
2019/08/30 07:01:30;;;;;;;12.4;8.5;;;;;;;;;;;;;
2019/08/30 07:03:55;;;;;;;8.1;7.4;;;;;;;;;;;;;
2019/08/30 07:06:20;;;;;;;11.2;8.3;;;;;;;;;;;;;
2019/08/30 07:08:45;;;;;;;10.8;8.2;;;;;;;;;;;;;
2019/08/30 07:11:10;;;;;;;10.4;7.7;;;;;;;;;;;;;
2019/08/30 07:13:50;;;;;;;10.1;7.8;;;;;;;;;;;;;
2019/08/30 07:16:00;;;;;;;12.8;8.3;;;;;;;;;;;;;
2019/08/30 07:18:26;;;;;;;8.8;7.8;;;;;;;;;;;;;
2019/08/30 07:20:51;;;;;;;8.3;7.5;;;;;;;;;;;;;
2019/08/30 07:23:16;;;;;;;9.1;7.8;;;;;;;;;;;;;
2019/08/30 07:25:41;;;;;;;9.6;7.5;;;;;;;;;;;;;
2019/08/30 07:28:06;;;;;;;8.4;7.4;;;;;;;;;;;;;
2019/08/30 07:30:31;;;;;;;12.1;8.1;;;;;;;;;;;;;
2019/08/30 07:32:56;;;;;;;9.1;7.2;;;;;;;;;;;;;
2019/08/30 07:35:22;;;;;;;10.1;7.8;;;;;;;;;;;;;
2019/08/30 07:37:47;;;;;;;10;7.9;;;;;;;;;;;;;
2019/08/30 07:40:12;;;;;;;8.7;7.7;;;;;;;;;;;;;
2019/08/30 07:42:37;;;;;;;11.3;7.5;;;;;;;;;;;;;
2019/08/30 07:45:02;;;;;;;9.6;7.8;;;;;;;;;;;;;
2019/08/30 07:47:27;;;;;;;8.8;7.6;;;;;;;;;;;;;
2019/08/30 07:49:52;;;;;;;10.8;7;;;;;;;;;;;;;
2019/08/30 07:52:18;;;;;;;11;7.8;;;;;;;;;;;;;
2019/08/30 07:54:43;;;;;;;8.1;7.3;;;;;;;;;;;;;
2019/08/30 07:57:08;;;;;;;10.3;7.9;;;;;;;;;;;;;
2019/08/30 07:59:33;;;;;;;9.3;8.3;;;;;;;;;;;;;
2019/08/30 08:01:58;;;;;;;9.2;8.2;;;;;;;;;;;;;
2019/08/30 08:04:23;;;;;;;11.9;9.4;;;;;;;;;;;;;
2019/08/30 08:06:48;;;;;;;9.5;8.5;;;;;;;;;;;;;
2019/08/30 08:09:13;;;;;;;9.1;8.2;;;;;;;;;;;;;
2019/08/30 08:11:38;;;;;;;13;8.9;;;;;;;;;;;;;
2019/08/30 08:14:03;;;;;;;11.2;8.8;;;;;;;;;;;;;
2019/08/30 08:16:29;;;;;;;9.6;8;;;;;;;;;;;;;
2019/08/30 08:18:54;;;;;;;11.3;9.9;;;;;;;;;;;;;
2019/08/30 08:21:19;;;;;;;10.8;9.7;;;;;;;;;;;;;
2019/08/30 08:23:44;;;;;;;10.9;9.8;;;;;;;;;;;;;
2019/08/30 08:26:09;;;;;;;11.3;10.1;;;;;;;;;;;;;
2019/08/30 08:28:34;;;;;;;11.5;9.8;;;;;;;;;;;;;
2019/08/30 08:30:59;;;;;;;11.1;10;;;;;;;;;;;;;
2019/08/30 08:33:24;;;;;;;14.4;10.4;;;;;;;;;;;;;
2019/08/30 08:35:49;;;;;;;14;9.3;;;;;;;;;;;;;
2019/08/30 08:38:14;;;;;;;11.8;9.3;;;;;;;;;;;;;
2019/08/30 08:40:39;;;;;;;9.8;8.9;;;;;;;;;;;;;
2019/08/30 08:43:04;;;;;;;9.2;8.3;;;;;;;;;;;;;
2019/08/30 08:45:30;;;;;;;10.8;9.7;;;;;;;;;;;;;
2019/08/30 08:47:55;;;;;;;10.5;9;;;;;;;;;;;;;
2019/08/30 08:50:20;;;;;;;9.5;8.5;;;;;;;;;;;;;
2019/08/30 08:52:45;;;;;;;11.1;9.1;;;;;;;;;;;;;
2019/08/30 08:55:10;;;;;;;10.1;9.1;;;;;;;;;;;;;
2019/08/30 08:57:36;;;;;;;9.6;8.7;;;;;;;;;;;;;
2019/08/30 09:00:01;;;;;;;14.2;12.7;;;;;;;;;;;;;
2019/08/30 09:02:26;;;;;;;10.9;9.9;;;;;;;;;;;;;
2019/08/30 09:04:51;;;;;;;11.5;10;;;;;;;;;;;;;
2019/08/30 09:07:16;;;;;;;10.6;9.5;;;;;;;;;;;;;
2019/08/30 09:09:41;;;;;;;10.4;8.6;;;;;;;;;;;;;
2019/08/30 09:12:06;;;;;;;10.6;8.9;;;;;;;;;;;;;
2019/08/30 09:14:31;;;;;;;11.3;9;;;;;;;;;;;;;
2019/08/30 09:16:56;;;;;;;9.2;8.3;;;;;;;;;;;;;
2019/08/30 09:19:21;;;;;;;10.9;8;;;;;;;;;;;;;
2019/08/30 09:21:46;;;;;;;9.3;8.1;;;;;;;;;;;;;
2019/08/30 09:24:12;;;;;;;9.8;8.8;;;;;;;;;;;;;
2019/08/30 09:26:37;;;;;;;9.8;8.9;;;;;;;;;;;;;
2019/08/30 09:29:02;;;;;;;10.4;9.3;;;;;;;;;;;;;
2019/08/30 09:31:27;;;;;;;9.4;8.5;;;;;;;;;;;;;
2019/08/30 09:33:52;;;;;;;10.2;8.9;;;;;;;;;;;;;
2019/08/30 09:36:17;;;;;;;8.5;7.7;;;;;;;;;;;;;
2019/08/30 09:38:42;;;;;;;10.7;8.7;;;;;;;;;;;;;
2019/08/30 09:41:07;;;;;;;8.4;7.6;;;;;;;;;;;;;
2019/08/30 09:43:32;;;;;;;7.3;6.6;;;;;;;;;;;;;
2019/08/30 09:45:58;;;;;;;9.4;6.9;;;;;;;;;;;;;
2019/08/30 09:48:23;;;;;;;7.1;6.5;;;;;;;;;;;;;
2019/08/30 09:50:48;;;;;;;7.7;6.4;;;;;;;;;;;;;
2019/08/30 09:53:13;;;;;;;6.9;6.2;;;;;;;;;;;;;
2019/08/30 09:55:38;;;;;;;6.6;6;;;;;;;;;;;;;
2019/08/30 09:58:03;;;;;;;9.4;7.5;;;;;;;;;;;;;
2019/08/30 10:00:28;;;;;;;7.4;6.7;;;;;;;;;;;;;
2019/08/30 10:02:53;;;;;;;7;6.2;;;;;;;;;;;;;
2019/08/30 10:05:19;;;;;;;6.4;5.8;;;;;;;;;;;;;
2019/08/30 10:07:44;;;;;;;7.5;6.5;;;;;;;;;;;;;
2019/08/30 10:10:09;;;;;;;6.8;6;;;;;;;;;;;;;
2019/08/30 10:12:34;;;;;;;7.3;6.5;;;;;;;;;;;;;
2019/08/30 10:14:59;;;;;;;7.5;6.8;;;;;;;;;;;;;
2019/08/30 10:17:24;;;;;;;7.5;6.6;;;;;;;;;;;;;
2019/08/30 10:19:49;;;;;;;9.3;8.3;;;;;;;;;;;;;
2019/08/30 10:22:14;;;;;;;8.1;7.2;;;;;;;;;;;;;
2019/08/30 10:24:39;;;;;;;7.6;6.7;;;;;;;;;;;;;
2019/08/30 10:27:04;;;;;;;8.6;7.1;;;;;;;;;;;;;
2019/08/30 10:29:29;;;;;;;9.3;8.3;;;;;;;;;;;;;
2019/08/30 10:31:55;;;;;;;8.5;7.6;;;;;;;;;;;;;
2019/08/30 10:34:20;;;;;;;9.2;8;;;;;;;;;;;;;
2019/08/30 10:36:45;;;;;;;11.3;10.2;;;;;;;;;;;;;
2019/08/30 10:39:10;;;;;;;7.4;6.6;;;;;;;;;;;;;
2019/08/30 10:41:35;;;;;;;6.8;6.1;;;;;;;;;;;;;
2019/08/30 10:44:00;;;;;;;6.8;6.2;;;;;;;;;;;;;
2019/08/30 10:46:25;;;;;;;8.2;7.4;;;;;;;;;;;;;
2019/08/30 10:48:50;;;;;;;8.6;7.7;;;;;;;;;;;;;
2019/08/30 10:51:15;;;;;;;11.6;10.5;;;;;;;;;;;;;
2019/08/30 10:53:41;;;;;;;8;6.9;;;;;;;;;;;;;
2019/08/30 10:56:06;;;;;;;7.7;6.9;;;;;;;;;;;;;
2019/08/30 10:58:31;;;;;;;7.7;7;;;;;;;;;;;;;
2019/08/30 11:00:56;;;;;;;8.8;7.6;;;;;;;;;;;;;
2019/08/30 11:03:22;;;;;;;9.3;7.5;;;;;;;;;;;;;
2019/08/30 11:05:47;;;;;;;8.6;7.8;;;;;;;;;;;;;
2019/08/30 11:08:12;;;;;;;8.5;7.7;;;;;;;;;;;;;
2019/08/30 11:10:37;;;;;;;7.9;6.9;;;;;;;;;;;;;
2019/08/30 11:13:02;;;;;;;8.3;7.5;;;;;;;;;;;;;
2019/08/30 11:15:27;;;;;;;8.5;7.7;;;;;;;;;;;;;
2019/08/30 11:17:52;;;;;;;7.4;6.5;;;;;;;;;;;;;
2019/08/30 11:20:17;;;;;;;7.8;6.8;;;;;;;;;;;;;
2019/08/30 11:22:42;;;;;;;10.8;8.7;;;;;;;;;;;;;
2019/08/30 11:25:08;;;;;;;7.5;5.8;;;;;;;;;;;;;
2019/08/30 11:27:33;;;;;;;11.1;8.3;;;;;;;;;;;;;
2019/08/30 11:29:58;;;;;;;12.1;9.9;;;;;;;;;;;;;
2019/08/30 11:32:23;;;;;;;13.3;11.6;;;;;;;;;;;;;
2019/08/30 11:34:48;;;;;;;7.9;6;;;;;;;;;;;;;
2019/08/30 11:37:13;;;;;;;6;5.4;;;;;;;;;;;;;
2019/08/30 11:39:38;;;;;;;6.1;5.5;;;;;;;;;;;;;
2019/08/30 11:42:04;;;;;;;7;5.7;;;;;;;;;;;;;
2019/08/30 11:44:29;;;;;;;5.8;5.3;;;;;;;;;;;;;
2019/08/30 11:46:54;;;;;;;5.9;5.3;;;;;;;;;;;;;
2019/08/30 11:49:19;;;;;;;5.4;5;;;;;;;;;;;;;
2019/08/30 11:51:44;;;;;;;5.6;5.1;;;;;;;;;;;;;
2019/08/30 11:54:09;;;;;;;5.9;5.3;;;;;;;;;;;;;
2019/08/30 11:56:34;;;;;;;5.3;4.8;;;;;;;;;;;;;
2019/08/30 11:58:59;;;;;;;6.2;4.9;;;;;;;;;;;;;
2019/08/30 12:01:25;;;;;;;5.2;4.7;;;;;;;;;;;;;
2019/08/30 12:03:50;;;;;;;5.7;5.1;;;;;;;;;;;;;
2019/08/30 12:06:15;;;;;;;5.7;5.2;;;;;;;;;;;;;
2019/08/30 12:08:40;;;;;;;5;4.5;;;;;;;;;;;;;
2019/08/30 12:11:05;;;;;;;5.1;4.6;;;;;;;;;;;;;
2019/08/30 12:13:30;;;;;;;5.4;4.5;;;;;;;;;;;;;
2019/08/30 12:15:55;;;;;;;5;4.5;;;;;;;;;;;;;
2019/08/30 12:18:20;;;;;;;6.3;4.4;;;;;;;;;;;;;
2019/08/30 12:20:45;;;;;;;5.5;4.6;;;;;;;;;;;;;
2019/08/30 12:23:10;;;;;;;4.7;4.2;;;;;;;;;;;;;
2019/08/30 12:25:35;;;;;;;5.3;4.3;;;;;;;;;;;;;
2019/08/30 12:28:01;;;;;;;5.7;4.2;;;;;;;;;;;;;
2019/08/30 12:30:26;;;;;;;4.1;3.7;;;;;;;;;;;;;
2019/08/30 12:32:51;;;;;;;4.2;3.5;;;;;;;;;;;;;
2019/08/30 12:35:16;;;;;;;6;3.8;;;;;;;;;;;;;
2019/08/30 12:37:41;;;;;;;4.6;3.7;;;;;;;;;;;;;
2019/08/30 12:40:06;;;;;;;4.3;3.9;;;;;;;;;;;;;
2019/08/30 12:42:31;;;;;;;4.4;4;;;;;;;;;;;;;
2019/08/30 12:44:56;;;;;;;4.5;4;;;;;;;;;;;;;
2019/08/30 12:47:22;;;;;;;4.4;4;;;;;;;;;;;;;
2019/08/30 12:49:47;;;;;;;4.6;4.2;;;;;;;;;;;;;
2019/08/30 12:52:12;;;;;;;4.6;4.2;;;;;;;;;;;;;
2019/08/30 12:54:37;;;;;;;5.9;5.3;;;;;;;;;;;;;
2019/08/30 12:58:06;;;;;;;5.4;4.7;;;;;;;26.11;54.15332;965.9617;;;;
2019/08/30 13:00:31;;;;;;;4.8;4.1;;;;;;;26.27;53.47949;965.9016;;;;
2019/08/30 13:02:56;;;;;;;6.2;4.5;;;;;;;26.24;54.86035;965.9109;;;;
2019/08/30 13:05:21;;;;;;;4.7;4.3;;;;;;;26.37;54.65039;965.8561;;;;
2019/08/30 13:07:46;;;;;;;4.7;4.2;;;;;;;26.61;54.64355;965.8784;;;;
2019/08/30 13:10:11;;;;;;;4.8;4.4;;;;;;;26.51;55.45508;965.8024;;;;
2019/08/30 13:12:36;;;;;;;5.6;4.5;;;;;;;26.6;54.31934;965.802;;;;
2019/08/30 13:15:01;;;;;;;4.8;4.3;;;;;;;26.67;53.07422;965.7746;;;;
2019/08/30 13:17:26;;;;;;;6.8;5;;;;;;;26.75;51.83008;965.7416;;;;
2019/08/30 13:19:51;;;;;;;4.8;4.3;;;;;;;26.85;50.87402;965.718;;;;
2019/08/30 13:22:17;;;;;;;4.4;4;;;;;;;26.98;51.80859;965.6353;;;;
2019/08/30 13:24:42;;;;;;;4.8;4.4;;;;;;;26.84;52.91602;965.7148;;;;
2019/08/30 13:27:07;;;;;;;5.7;4.5;;;;;;;26.49;54.10449;965.6174;;;;
2019/08/30 13:29:32;;;;;;;4.8;4.4;;;;;;;26.55;54.0625;965.5793;;;;
2019/08/30 13:31:57;;;;;;;5;4.4;;;;;;;26.49;54.25879;965.5956;;;;
2019/08/30 13:34:22;;;;;;;4.7;4.2;;;;;;;26.58;51.22656;965.5325;;;;
2019/08/30 13:36:47;;;;;;;5.6;4.2;;;;;;;26.8;51.34668;965.4828;;;;
2019/08/30 13:39:12;;;;;;;4.7;4.3;;;;;;;26.68;52.51563;965.4895;;;;
2019/08/30 13:41:37;;;;;;;5.4;4.5;;;;;;;26.58;51.98926;965.4841;;;;
2019/08/30 13:44:03;;;;;;;5;4.4;;;;;;;26.74;51.45898;965.4874;;;;
2019/08/30 13:46:28;;;;;;;4.6;4.2;;;;;;;27.02;51.62305;965.4389;;;;
2019/08/30 13:48:53;;;;;;;5;4.5;;;;;;;27.18;51.0918;965.445;;;;
2019/08/30 13:51:19;;;;;;;4.9;4.5;;;;;;;27.27;50.0957;965.4528;;;;
2019/08/30 13:53:44;;;;;;;5.7;4.8;;;;;;;27.31;51.09473;965.4512;;;;
2019/08/30 13:56:10;;;;;;;6;4.7;;;;;;;27.06;52.47461;965.4292;;;;
2019/08/30 13:58:35;;;;;;;5.1;4.6;;;;;;;27.04;52.22168;965.4299;;;;
2019/08/30 14:01:00;;;;;;;5.6;5.1;;;;;;;27.2;51.65527;965.4937;;;;
2019/08/30 14:03:27;;;;;;;5.3;4.8;;;;;;;27.17;51.47168;965.4877;;;;
2019/08/30 14:05:51;;;;;;;5.4;4.9;;;;;;;27.09;51.25977;965.4214;;;;
2019/08/30 14:08:16;;;;;;;7.7;4.8;;;;;;;26.96;52.58398;965.3625;;;;
2019/08/30 14:10:41;;;;;;;6.6;5.4;;;;;;;26.89;52.84961;965.4018;;;;
2019/08/30 14:13:06;;;;;;;5.6;4.6;;;;;;;26.93;52.59082;965.4041;;;;
2019/08/30 14:15:31;;;;;;;6.8;4.4;;;;;;;26.99;50.28125;965.37;;;;
2019/08/30 14:17:57;;;;;;;5.2;4.2;;;;;;;27;51.07031;965.3392;;;;
2019/08/30 14:20:22;;;;;;;4.6;3.9;;;;;;;26.99;49.875;965.3064;;;;
2019/08/30 14:22:47;;;;;;;4.9;4.5;;;;;;;27.07;50.8877;965.3575;;;;
2019/08/30 14:25:12;;;;;;;5.1;4.3;;;;;;;27.05;52.02051;965.2419;;;;
2019/08/30 14:27:37;;;;;;;5.6;4.5;;;;;;;27.08;51.01953;965.3078;;;;
2019/08/30 14:30:02;;;;;;;5.7;4;;;;;;;26.98;52.14258;965.2386;;;;
2019/08/30 14:32:28;;;;;;;4.5;4.1;;;;;;;27.05;51.17188;965.2269;;;;
2019/08/30 14:34:53;;;;;;;4.3;3.8;;;;;;;27.11;51.01074;965.2358;;;;
2019/08/30 14:37:18;;;;;;;4.7;4.3;;;;;;;27.05;53.21484;965.1498;;;;
2019/08/30 14:39:43;;;;;;;4.2;3.8;;;;;;;27.02;48.61133;965.1011;;;;
2019/08/30 14:42:08;;;;;;;4.3;3.9;;;;;;;27.11;50.41406;965.113;;;;
2019/08/30 14:44:33;;;;;;;4.2;3.8;;;;;;;27.06;50.54004;965.1453;;;;
2019/08/30 14:46:58;;;;;;;4.9;4;;;;;;;27;51.19043;965.1328;;;;
2019/08/30 14:49:23;;;;;;;4.3;3.9;;;;;;;26.96;51.33984;965.1252;;;;
2019/08/30 14:51:48;;;;;;;5.5;3.9;;;;;;;26.96;49.40625;965.144;;;;
2019/08/30 14:54:13;;;;;;;4.3;3.9;;;;;;;26.84;50.15723;965.0974;;;;
2019/08/30 14:56:38;;;;;;;3.9;3.5;;;;;;;26.74;49.07129;965.1069;;;;
2019/08/30 14:59:03;;;;;;;4.1;3.7;;;;;;;26.63;50.86133;965.0875;;;;
2019/08/30 15:01:28;;;;;;;4.2;3.7;;;;;;;26.4;50.44141;965.0266;;;;
2019/08/30 15:03:53;;;;;;;4.4;4;;;;;;;26.38;51.62012;965.0048;;;;
2019/08/30 15:06:19;;;;;;;5.6;3.8;;;;;;;26.35;51.72461;965.0005;;;;
2019/08/30 15:08:44;;;;;;;4.5;4.1;;;;;;;26.28;51.28711;964.9905;;;;
2019/08/30 15:11:09;;;;;;;4.1;3.7;;;;;;;26.25;52.23828;965.0049;;;;
2019/08/30 15:13:34;;;;;;;5.1;4.5;;;;;;;26.3;51.11035;965.015;;;;
2019/08/30 15:16:00;;;;;;;4.7;4.2;;;;;;;26.39;51.72852;964.9972;;;;
2019/08/30 15:18:25;;;;;;;4.7;4.3;;;;;;;26.3;52.94727;964.9414;;;;
2019/08/30 15:20:50;;;;;;;5.9;4.7;;;;;;;26.38;52.86133;964.948;;;;
2019/08/30 15:23:16;;;;;;;5.5;5;;;;;;;26.51;52.23145;964.8987;;;;
2019/08/30 15:25:41;;;;;;;4.9;4.4;;;;;;;26.49;52.80371;964.925;;;;
2019/08/30 15:28:07;;;;;;;4.9;4.5;;;;;;;26.57;51.5957;964.9548;;;;
2019/08/30 15:30:33;;;;;;;7;4.6;;;;;;;26.48;52.53906;964.9903;;;;
2019/08/30 15:32:58;;;;;;;5.2;4.8;;;;;;;26.4;53.01855;964.964;;;;
2019/08/30 15:35:23;;;;;;;4.8;4.4;;;;;;;26.4;54.55762;964.9683;;;;
2019/08/30 15:37:48;;;;;;;5.3;4.8;;;;;;;26.4;53.01855;964.9788;;;;
2019/08/30 15:40:13;;;;;;;6.9;5;;;;;;;26.3;54.08008;964.949;;;;
2019/08/30 15:42:38;;;;;;;5.2;4.8;;;;;;;26.22;53.87988;964.9475;;;;
2019/08/30 15:45:03;;;;;;;5.4;4.9;;;;;;;26.34;52.43945;964.8873;;;;
2019/08/30 15:47:28;;;;;;;5.6;4.9;;;;;;;26.31;53.41309;964.8475;;;;
2019/08/30 15:49:54;;;;;;;5.4;4.9;;;;;;;26.26;53.96777;964.7816;;;;
2019/08/30 15:52:19;;;;;;;5.3;4.9;;;;;;;26.31;53.42578;964.7639;;;;
2019/08/30 15:54:45;;;;;;;6.1;5.4;;;;;;;26.23;54.73926;964.7433;;;;
2019/08/30 15:57:10;;;;;;;5.8;5.3;;;;;;;26.21;54.17676;964.8211;;;;
2019/08/30 15:59:36;;;;;;;7.2;5.5;;;;;;;26.17;54.30371;964.7445;;;;
2019/08/30 16:02:01;;;;;;;5.9;5.3;;;;;;;26.12;53.46289;964.7228;;;;
2019/08/30 16:04:27;;;;;;;5.8;5.2;;;;;;;26.11;54.70117;964.7332;;;;
2019/08/30 16:06:52;;;;;;;6;5.4;;;;;;;26;56.66602;964.7363;;;;
2019/08/30 16:09:17;;;;;;;5.7;5.2;;;;;;;25.97;56.66211;964.7557;;;;
2019/08/30 16:11:42;;;;;;;5.4;4.9;;;;;;;25.92;57.83594;964.7222;;;;
2019/08/30 16:14:07;;;;;;;5.8;5.2;;;;;;;25.97;55.33984;964.7153;;;;
2019/08/30 16:16:32;;;;;;;5.9;5;;;;;;;26.06;55.29102;964.7209;;;;
2019/08/30 16:18:58;;;;;;;6.1;5.5;;;;;;;25.93;55.72754;964.7067;;;;
2019/08/30 16:21:23;;;;;;;6.8;6.2;;;;;;;25.95;55.85059;964.6498;;;;
2019/08/30 16:23:48;;;;;;;6;5.4;;;;;;;25.93;56.38379;964.6805;;;;
2019/08/30 16:26:14;;;;;;;5.8;5.2;;;;;;;25.96;55.94629;964.6496;;;;
2019/08/30 16:28:39;;;;;;;5.6;5.1;;;;;;;26.04;55.09766;964.6538;;;;
2019/08/30 16:31:04;;;;;;;5.6;5.1;;;;;;;26.01;55.35742;964.6397;;;;
2019/08/30 16:33:30;;;;;;;6.3;5.3;;;;;;;25.99;55.3418;964.591;;;;
2019/08/30 16:35:55;;;;;;;5.8;5.2;;;;;;;25.98;54.9707;964.5881;;;;
2019/08/30 16:38:20;;;;;;;5.9;5.3;;;;;;;25.92;55.78711;964.5439;;;;
2019/08/30 16:40:45;;;;;;;5.2;4.7;;;;;;;25.86;56.44629;964.5587;;;;
2019/08/30 16:43:11;;;;;;;6.7;5.4;;;;;;;25.89;55.38867;964.5559;;;;
2019/08/30 16:45:36;;;;;;;5.5;5;;;;;;;25.89;55.23438;964.5786;;;;
2019/08/30 16:48:01;;;;;;;5.9;5.3;;;;;;;25.87;54.70801;964.5956;;;;
2019/08/30 16:50:26;;;;;;;5.1;4.6;;;;;;;25.83;55.47656;964.5681;;;;
2019/08/30 16:52:52;;;;;;;6.1;4.8;;;;;;;25.73;56.46484;964.617;;;;
2019/08/30 16:55:17;;;;;;;7.3;5;;;;;;;25.74;55.22852;964.5772;;;;
2019/08/30 16:57:43;;;;;;;5.2;4.7;;;;;;;25.74;55.47754;964.6175;;;;
2019/08/30 17:00:08;;;;;;;6.2;5.2;;;;;;;25.76;54.75293;964.5909;;;;
2019/08/30 17:02:33;;;;;;;5.8;5.3;;;;;;;25.68;56.05469;964.6267;;;;
2019/08/30 17:04:58;;;;;;;5.9;5.3;;;;;;;25.68;55.80469;964.6978;;;;
2019/08/30 17:07:23;;;;;;;5.4;4.9;;;;;;;25.59;56.95996;964.735;;;;
2019/08/30 17:09:48;;;;;;;5.7;5.2;;;;;;;25.57;56.81445;964.7773;;;;
2019/08/30 17:12:13;;;;;;;5.5;4.8;;;;;;;25.51;56.7002;964.7174;;;;
2019/08/30 17:14:39;;;;;;;5.4;4.9;;;;;;;25.47;56.99219;964.7048;;;;
2019/08/30 17:17:04;;;;;;;5.3;4.5;;;;;;;25.46;56.64648;964.6523;;;;
2019/08/30 17:19:30;;;;;;;6.7;4.9;;;;;;;25.44;56.46484;964.6923;;;;
2019/08/30 17:21:55;;;;;;;5.5;5;;;;;;;25.42;56.86621;964.7053;;;;
2019/08/30 17:24:20;;;;;;;5.8;5.2;;;;;;;25.32;58.23438;964.671;;;;
2019/08/30 17:26:46;;;;;;;5.5;5;;;;;;;25.31;57.57813;964.6937;;;;
2019/08/30 17:29:11;;;;;;;5.1;4.5;;;;;;;25.15;59.28418;964.7051;;;;
2019/08/30 17:31:36;;;;;;;6.6;6;;;;;;;25.15;58.92676;964.6936;;;;
2019/08/30 17:34:01;;;;;;;5.6;5;;;;;;;25.12;58.36426;964.6831;;;;
2019/08/30 17:36:26;;;;;;;5.2;4.8;;;;;;;25.06;59.16504;964.715;;;;
2019/08/30 17:38:52;;;;;;;6.6;5.1;;;;;;;25.04;59.66113;964.8041;;;;
2019/08/30 17:41:17;;;;;;;5.4;4.9;;;;;;;25.07;59.02344;964.7759;;;;